createdAt,value
2017-04-24T00:00:05.293Z,18.9
2017-04-24T00:02:10.408Z,18.9
2017-04-24T00:04:05.162Z,18.9
2017-04-24T00:06:07.421Z,18.9
2017-04-24T00:08:07.608Z,18.9
2017-04-24T00:10:07.877Z,18.8
2017-04-24T00:12:05.099Z,18.8
2017-04-24T00:14:07.618Z,18.9
2017-04-24T00:16:09.952Z,18.8
2017-04-24T00:18:04.828Z,18.8
2017-04-24T00:20:05.826Z,18.8
2017-04-24T00:22:05.526Z,18.9
2017-04-24T00:24:05.531Z,18.9
2017-04-24T00:26:05.013Z,18.8
2017-04-24T00:28:07.814Z,18.9
2017-04-24T00:30:08.055Z,18.8
2017-04-24T00:32:04.994Z,18.8
2017-04-24T00:34:04.741Z,18.8
2017-04-24T00:36:05.456Z,18.8
2017-04-24T00:38:05.502Z,18.9
2017-04-24T00:40:05.505Z,18.9
2017-04-24T00:42:05.234Z,18.8
2017-04-24T00:44:05.228Z,18.9
2017-04-24T00:46:05.429Z,18.8
2017-04-24T00:48:04.764Z,18.9
2017-04-24T00:50:05.800Z,18.8
2017-04-24T00:52:05.502Z,18.9
2017-04-24T00:54:05.233Z,18.8
2017-04-24T00:56:05.832Z,18.8
2017-04-24T00:58:04.686Z,18.8
2017-04-24T01:00:05.374Z,18.8
2017-04-24T01:02:05.365Z,18.8
2017-04-24T01:04:07.669Z,18.8
2017-04-24T01:06:05.411Z,18.8
2017-04-24T01:08:05.385Z,18.9
2017-04-24T01:10:05.123Z,18.8
2017-04-24T01:12:04.959Z,18.8
2017-04-24T01:14:04.885Z,18.8
2017-04-24T01:16:05.627Z,18.8
2017-04-24T01:18:05.545Z,18.8
2017-04-24T01:20:05.484Z,18.8
2017-04-24T01:22:05.177Z,18.8
2017-04-24T01:24:12.692Z,18.8
2017-04-24T01:26:05.821Z,18.8
2017-04-24T01:28:08.526Z,18.8
2017-04-24T01:30:10.288Z,18.8
2017-04-24T01:32:10.354Z,18.8
2017-04-24T01:34:05.005Z,18.8
2017-04-24T01:36:04.861Z,18.8
2017-04-24T01:38:05.513Z,18.8
2017-04-24T01:40:15.131Z,18.8
2017-04-24T01:42:05.349Z,18.8
2017-04-24T01:44:05.474Z,18.8
2017-04-24T01:46:05.278Z,18.8
2017-04-24T01:48:05.227Z,18.8
2017-04-24T01:50:05.346Z,18.8
2017-04-24T01:52:05.048Z,18.8
2017-04-24T01:54:07.318Z,18.8
2017-04-24T01:56:07.388Z,18.8
2017-04-24T01:58:05.445Z,18.8
2017-04-24T02:00:07.541Z,18.8
2017-04-24T02:02:05.585Z,18.7
2017-04-24T02:04:05.290Z,18.7
2017-04-24T02:06:05.076Z,18.7
2017-04-24T02:08:05.160Z,18.7
2017-04-24T02:10:04.872Z,18.8
2017-04-24T02:12:05.565Z,18.8
2017-04-24T02:14:05.611Z,18.8
2017-04-24T02:16:05.557Z,18.7
2017-04-24T02:18:05.544Z,18.7
2017-04-24T02:20:10.655Z,18.7
2017-04-24T02:22:07.981Z,18.7
2017-04-24T02:24:04.677Z,18.7
2017-04-24T02:26:05.648Z,18.7
2017-04-24T02:28:05.398Z,18.7
2017-04-24T02:30:05.113Z,18.7
2017-04-24T02:32:04.985Z,18.8
2017-04-24T02:34:04.700Z,18.7
2017-04-24T02:36:05.394Z,18.7
2017-04-24T02:38:05.542Z,18.7
2017-04-24T02:40:05.453Z,18.7
2017-04-24T02:42:05.576Z,18.7
2017-04-24T02:44:05.446Z,18.7
2017-04-24T02:46:05.174Z,18.7
2017-04-24T02:48:07.554Z,18.7
2017-04-24T02:50:08.379Z,18.7
2017-04-24T02:52:05.133Z,18.7
2017-04-24T02:54:05.634Z,18.7
2017-04-24T02:56:06.022Z,18.7
2017-04-24T02:58:04.728Z,18.7
2017-04-24T03:00:07.959Z,18.7
2017-04-24T03:02:05.375Z,18.7
2017-04-24T03:04:07.964Z,18.7
2017-04-24T03:06:04.783Z,18.7
2017-04-24T03:08:05.524Z,18.7
2017-04-24T03:10:05.426Z,18.7
2017-04-24T03:12:05.238Z,18.7
2017-04-24T03:14:05.219Z,18.7
2017-04-24T03:16:04.979Z,18.7
2017-04-24T03:18:04.925Z,18.7
2017-04-24T03:20:05.341Z,18.7
2017-04-24T03:22:05.117Z,18.7
2017-04-24T03:24:05.205Z,18.7
2017-04-24T03:26:05.487Z,18.7
2017-04-24T03:28:07.349Z,18.7
2017-04-24T03:30:07.885Z,18.7
2017-04-24T03:32:05.510Z,18.6
2017-04-24T03:34:05.248Z,18.7
2017-04-24T03:36:05.229Z,18.7
2017-04-24T03:38:07.607Z,18.7
2017-04-24T03:40:04.832Z,18.7
2017-04-24T03:42:05.080Z,18.7
2017-04-24T03:44:04.951Z,18.7
2017-04-24T03:46:04.696Z,18.7
2017-04-24T03:48:05.469Z,18.7
2017-04-24T03:50:07.877Z,18.7
2017-04-24T03:52:05.233Z,18.6
2017-04-24T03:54:07.451Z,18.6
2017-04-24T03:56:05.095Z,18.6
2017-04-24T03:58:04.793Z,18.6
2017-04-24T04:00:04.990Z,18.7
2017-04-24T04:02:04.940Z,18.6
2017-04-24T04:04:07.701Z,18.6
2017-04-24T04:06:05.466Z,18.6
2017-04-24T04:08:05.523Z,18.7
2017-04-24T04:10:05.207Z,18.6
2017-04-24T04:12:07.438Z,18.6
2017-04-24T04:14:05.728Z,18.6
2017-04-24T04:16:05.425Z,18.6
2017-04-24T04:18:05.464Z,18.6
2017-04-24T04:20:04.992Z,18.6
2017-04-24T04:22:07.731Z,18.6
2017-04-24T04:24:05.749Z,18.6
2017-04-24T04:26:05.880Z,18.6
2017-04-24T04:28:08.123Z,18.6
2017-04-24T04:30:10.203Z,18.6
2017-04-24T04:32:05.609Z,18.6
2017-04-24T04:34:05.412Z,18.6
2017-04-24T04:36:04.620Z,18.6
2017-04-24T04:38:05.423Z,18.6
2017-04-24T04:40:05.393Z,18.6
2017-04-24T04:42:04.628Z,18.6
2017-04-24T04:44:05.472Z,18.6
2017-04-24T04:46:06.518Z,18.6
2017-04-24T04:48:07.789Z,18.7
2017-04-24T04:50:05.897Z,18.7
2017-04-24T04:52:04.666Z,18.7
2017-04-24T04:54:07.891Z,18.7
2017-04-24T04:56:04.946Z,18.7
2017-04-24T04:58:04.627Z,18.7
2017-04-24T05:00:07.863Z,18.8
2017-04-24T05:02:06.025Z,18.8
2017-04-24T05:04:04.696Z,18.8
2017-04-24T05:06:05.462Z,18.8
2017-04-24T05:08:05.527Z,18.8
2017-04-24T05:10:07.767Z,18.8
2017-04-24T05:12:08.092Z,18.9
2017-04-24T05:14:05.540Z,18.9
2017-04-24T05:16:07.847Z,18.9
2017-04-24T05:18:05.798Z,18.9
2017-04-24T05:20:05.809Z,18.9
2017-04-24T05:22:05.631Z,19
2017-04-24T05:24:05.351Z,19
2017-04-24T05:26:05.378Z,19
2017-04-24T05:28:07.699Z,19
2017-04-24T05:30:07.985Z,19
2017-04-24T05:32:05.579Z,19.1
2017-04-24T05:34:10.393Z,19.1
2017-04-24T05:36:05.148Z,19.1
2017-04-24T05:38:12.738Z,19.1
2017-04-24T05:40:10.517Z,19.1
2017-04-24T05:42:05.255Z,19.2
2017-04-24T05:44:17.986Z,19.2
2017-04-24T05:46:04.677Z,19.2
2017-04-24T05:48:05.376Z,19.2
2017-04-24T05:50:05.315Z,19.2
2017-04-24T05:52:05.130Z,19.2
2017-04-24T05:54:04.985Z,19.2
2017-04-24T05:56:07.401Z,19.3
2017-04-24T05:58:05.142Z,19.2
2017-04-24T06:00:05.223Z,19.3
2017-04-24T06:02:05.188Z,19.3
2017-04-24T06:04:04.880Z,19.3
2017-04-24T06:06:05.109Z,19.3
2017-04-24T06:08:06.076Z,19.3
2017-04-24T06:10:10.424Z,19.4
2017-04-24T06:12:07.738Z,19.4
2017-04-24T06:14:05.796Z,19.3
2017-04-24T06:16:05.876Z,19.4
2017-04-24T06:18:07.314Z,19.4
2017-04-24T06:20:05.180Z,19.4
2017-04-24T06:22:05.445Z,19.4
2017-04-24T06:24:05.164Z,19.4
2017-04-24T06:26:05.080Z,19.4
2017-04-24T06:28:07.825Z,19.5
2017-04-24T06:30:04.768Z,19.4
2017-04-24T06:32:05.610Z,19.5
2017-04-24T06:34:10.323Z,19.5
2017-04-24T06:36:10.622Z,19.5
2017-04-24T06:38:08.205Z,19.5
2017-04-24T06:40:08.008Z,19.5
2017-04-24T06:42:05.348Z,19.5
2017-04-24T06:44:05.455Z,19.5
2017-04-24T06:46:05.186Z,19.6
2017-04-24T06:48:07.733Z,19.6
2017-04-24T06:50:07.796Z,19.6
2017-04-24T06:52:05.481Z,19.6
2017-04-24T06:54:05.173Z,19.6
2017-04-24T06:56:05.002Z,19.6
2017-04-24T06:58:07.230Z,19.7
2017-04-24T07:00:07.419Z,19.6
2017-04-24T07:02:12.592Z,19.6
2017-04-24T07:04:05.611Z,19.6
2017-04-24T07:06:05.291Z,19.6
2017-04-24T07:08:07.805Z,19.7
2017-04-24T07:10:05.557Z,19.7
2017-04-24T07:12:05.343Z,19.7
2017-04-24T07:14:04.762Z,19.7
2017-04-24T07:16:05.509Z,19.7
2017-04-24T07:18:05.425Z,19.7
2017-04-24T07:20:05.593Z,19.7
2017-04-24T07:22:05.307Z,19.8
2017-04-24T07:24:05.013Z,19.7
2017-04-24T07:26:07.613Z,19.8
2017-04-24T07:28:10.418Z,19.7
2017-04-24T07:30:05.145Z,19.7
2017-04-24T07:32:05.012Z,19.8
2017-04-24T07:34:07.218Z,19.8
2017-04-24T07:36:07.783Z,19.8
2017-04-24T07:38:05.229Z,19.8
2017-04-24T07:40:05.435Z,19.8
2017-04-24T07:42:05.135Z,19.8
2017-04-24T07:44:05.020Z,19.9
2017-04-24T07:46:04.747Z,19.9
2017-04-24T07:48:05.446Z,19.9
2017-04-24T07:50:07.821Z,20
2017-04-24T07:52:08.329Z,20
2017-04-24T07:54:05.022Z,20
2017-04-24T07:56:05.047Z,20
2017-04-24T07:58:04.714Z,20
2017-04-24T08:00:05.471Z,20
2017-04-24T08:02:05.470Z,20
2017-04-24T08:04:05.211Z,20
2017-04-24T08:06:07.505Z,20
2017-04-24T08:08:05.546Z,20
2017-04-24T08:10:05.229Z,20
2017-04-24T08:12:04.929Z,20
2017-04-24T08:14:05.329Z,20
2017-04-24T08:16:05.030Z,20
2017-04-24T08:18:05.625Z,20
2017-04-24T08:20:05.769Z,20
2017-04-24T08:22:07.518Z,20.1
2017-04-24T08:24:05.006Z,20.1
2017-04-24T08:26:04.935Z,20.1
2017-04-24T08:28:04.665Z,20.1
2017-04-24T08:30:05.343Z,20.1
2017-04-24T08:32:05.148Z,20.1
2017-04-24T08:34:04.853Z,20.1
2017-04-24T08:36:05.642Z,20.1
2017-04-24T08:38:08.166Z,20.1
2017-04-24T08:40:07.965Z,20.1
2017-04-24T08:42:04.698Z,20.1
2017-04-24T08:44:05.749Z,20.1
2017-04-24T08:46:15.575Z,20.2
2017-04-24T08:48:05.275Z,20.2
2017-04-24T08:50:05.120Z,20.2
2017-04-24T08:52:05.561Z,20.3
2017-04-24T08:54:05.243Z,20.3
2017-04-24T08:56:05.224Z,20.3
2017-04-24T08:58:07.421Z,20.3
2017-04-24T09:00:10.409Z,20.4
2017-04-24T09:02:10.931Z,20.4
2017-04-24T09:04:10.388Z,20.4
2017-04-24T09:06:10.134Z,20.4
2017-04-24T09:08:10.376Z,20.4
2017-04-24T09:10:05.593Z,20.4
2017-04-24T09:12:05.611Z,20.5
2017-04-24T09:14:05.901Z,20.5
2017-04-24T09:16:05.612Z,20.5
2017-04-24T09:18:10.579Z,20.6
2017-04-24T09:20:08.217Z,20.7
2017-04-24T09:22:04.916Z,20.7
2017-04-24T09:24:04.657Z,20.7
2017-04-24T09:26:10.541Z,20.9
2017-04-24T09:28:05.429Z,20.9
2017-04-24T09:30:05.167Z,21
2017-04-24T09:32:04.998Z,21.1
2017-04-24T09:34:09.946Z,21.1
2017-04-24T09:36:08.619Z,21.1
2017-04-24T09:38:05.505Z,21.1
2017-04-24T09:40:05.334Z,21.1
2017-04-24T09:42:05.011Z,21.1
2017-04-24T09:44:04.998Z,21
2017-04-24T09:46:04.775Z,20.9
2017-04-24T09:48:05.477Z,20.9
2017-04-24T09:50:05.072Z,20.8
2017-04-24T09:52:04.774Z,20.8
2017-04-24T09:54:05.432Z,20.7
2017-04-24T09:56:05.288Z,20.7
2017-04-24T09:58:07.534Z,20.6
2017-04-24T10:00:07.924Z,20.6
2017-04-24T10:02:04.952Z,20.6
2017-04-24T10:04:05.231Z,20.6
2017-04-24T10:06:05.469Z,20.6
2017-04-24T10:08:05.310Z,20.6
2017-04-24T10:10:04.976Z,20.5
2017-04-24T10:12:05.192Z,20.5
2017-04-24T10:14:05.050Z,20.5
2017-04-24T10:16:05.184Z,20.4
2017-04-24T10:18:07.176Z,20.4
2017-04-24T10:20:05.174Z,20.4
2017-04-24T10:22:07.948Z,20.3
2017-04-24T10:24:04.690Z,20.3
2017-04-24T10:26:08.227Z,20.3
2017-04-24T10:28:07.418Z,20.3
2017-04-24T10:30:05.122Z,20.3
2017-04-24T10:32:07.618Z,20.2
2017-04-24T10:34:05.338Z,20.2
2017-04-24T10:36:05.581Z,20.2
2017-04-24T10:38:05.581Z,20.2
2017-04-24T10:40:05.272Z,20.2
2017-04-24T10:42:04.947Z,20.1
2017-04-24T10:44:07.849Z,20.1
2017-04-24T10:46:04.657Z,20.1
2017-04-24T10:48:05.670Z,20.1
2017-04-24T10:50:05.698Z,20.1
2017-04-24T10:52:04.994Z,20.1
2017-04-24T10:54:04.696Z,20.1
2017-04-24T10:56:05.554Z,20.1
2017-04-24T10:58:04.829Z,20.1
2017-04-24T11:00:05.480Z,20
2017-04-24T11:02:05.390Z,20
2017-04-24T11:04:05.378Z,20
2017-04-24T11:06:05.112Z,20
2017-04-24T11:08:05.752Z,20
2017-04-24T11:10:10.555Z,20
2017-04-24T11:12:05.237Z,20
2017-04-24T11:14:05.133Z,20
2017-04-24T11:16:07.395Z,20
2017-04-24T11:18:10.317Z,19.9
2017-04-24T11:20:07.898Z,19.9
2017-04-24T11:22:04.670Z,19.9
2017-04-24T11:24:05.345Z,19.9
2017-04-24T11:26:05.851Z,19.9
2017-04-24T11:28:05.671Z,19.9
2017-04-24T11:30:07.403Z,19.9
2017-04-24T11:32:05.369Z,19.9
2017-04-24T11:34:07.552Z,19.9
2017-04-24T11:36:05.382Z,19.9
2017-04-24T11:38:05.452Z,19.9
2017-04-24T11:40:05.193Z,19.9
2017-04-24T11:42:04.909Z,19.9
2017-04-24T11:44:05.954Z,19.9
2017-04-24T11:46:04.624Z,19.9
2017-04-24T11:48:05.560Z,19.9
2017-04-24T11:50:05.396Z,19.9
2017-04-24T11:52:05.308Z,19.9
2017-04-24T11:54:05.573Z,19.9
2017-04-24T11:56:08.115Z,19.8
2017-04-24T11:58:05.309Z,19.9
2017-04-24T12:00:05.092Z,19.8
2017-04-24T12:02:04.985Z,19.8
2017-04-24T12:04:09.803Z,19.8
2017-04-24T12:06:10.566Z,19.8
2017-04-24T12:08:05.498Z,19.8
2017-04-24T12:10:04.940Z,19.8
2017-04-24T12:12:04.670Z,19.8
2017-04-24T12:14:05.528Z,19.8
2017-04-24T12:16:05.253Z,19.8
2017-04-24T12:18:05.217Z,19.8
2017-04-24T12:20:05.119Z,19.8
2017-04-24T12:22:04.809Z,19.8
2017-04-24T12:24:05.697Z,19.8
2017-04-24T12:26:05.722Z,19.8
2017-04-24T12:28:08.074Z,19.8
2017-04-24T12:30:04.922Z,19.8
2017-04-24T12:32:05.862Z,19.8
2017-04-24T12:34:04.651Z,19.8
2017-04-24T12:36:07.416Z,19.8
2017-04-24T12:38:05.472Z,19.7
2017-04-24T12:40:05.040Z,19.8
2017-04-24T12:42:04.779Z,19.7
2017-04-24T12:44:05.845Z,19.8
2017-04-24T12:46:05.538Z,19.7
2017-04-24T12:48:05.231Z,19.7
2017-04-24T12:50:05.117Z,19.7
2017-04-24T12:52:05.419Z,19.7
2017-04-24T12:54:05.133Z,19.7
2017-04-24T12:56:04.987Z,19.7
2017-04-24T12:58:07.431Z,19.7
2017-04-24T13:00:07.674Z,19.7
2017-04-24T13:02:08.147Z,19.7
2017-04-24T13:04:04.831Z,19.6
2017-04-24T13:06:05.108Z,19.7
2017-04-24T13:08:05.074Z,19.7
2017-04-24T13:10:04.814Z,19.6
2017-04-24T13:12:10.819Z,19.6
2017-04-24T13:14:05.739Z,19.6
2017-04-24T13:16:05.507Z,19.6
2017-04-24T13:18:05.452Z,19.6
2017-04-24T13:20:08.113Z,19.6
2017-04-24T13:22:05.386Z,19.6
2017-04-24T13:24:05.267Z,19.6
2017-04-24T13:26:05.123Z,19.6
2017-04-24T13:28:05.223Z,19.6
2017-04-24T13:30:04.994Z,19.6
2017-04-24T13:32:04.943Z,19.6
2017-04-24T13:34:04.649Z,19.5
2017-04-24T13:36:05.409Z,19.6
2017-04-24T13:38:05.368Z,19.6
2017-04-24T13:40:05.049Z,19.6
2017-04-24T13:42:04.786Z,19.6
2017-04-24T13:44:05.858Z,19.6
2017-04-24T13:46:05.566Z,19.6
2017-04-24T13:48:05.249Z,19.6
2017-04-24T13:50:07.614Z,19.6
2017-04-24T13:52:05.287Z,19.6
2017-04-24T13:54:04.951Z,19.6
2017-04-24T13:56:04.989Z,19.6
2017-04-24T13:58:04.693Z,19.6
2017-04-24T14:00:05.092Z,19.6
2017-04-24T14:02:05.468Z,19.6
2017-04-24T14:04:05.236Z,19.6
2017-04-24T14:06:04.961Z,19.6
2017-04-24T14:08:05.090Z,19.6
2017-04-24T14:10:04.808Z,19.6
2017-04-24T14:12:05.465Z,19.6
2017-04-24T14:14:05.541Z,19.6
2017-04-24T14:16:08.105Z,19.6
2017-04-24T14:18:05.580Z,19.5
2017-04-24T14:20:10.457Z,19.6
2017-04-24T14:22:05.332Z,19.6
2017-04-24T14:24:07.546Z,19.6
2017-04-24T14:26:05.491Z,19.6
2017-04-24T14:28:05.088Z,19.6
2017-04-24T14:30:04.817Z,19.6
2017-04-24T14:32:08.251Z,19.6
2017-04-24T14:34:04.940Z,19.6
2017-04-24T14:36:04.656Z,19.6
2017-04-24T14:38:05.700Z,19.6
2017-04-24T14:40:05.445Z,19.6
2017-04-24T14:42:04.711Z,19.6
2017-04-24T14:44:04.916Z,19.6
2017-04-24T14:46:04.684Z,19.6
2017-04-24T14:48:05.080Z,19.6
2017-04-24T14:50:09.993Z,19.6
2017-04-24T14:52:04.666Z,19.6
2017-04-24T14:54:04.923Z,19.6
2017-04-24T14:56:04.958Z,19.6
2017-04-24T14:58:04.850Z,19.6
2017-04-24T15:00:10.651Z,19.6
2017-04-24T15:02:07.707Z,19.6
2017-04-24T15:04:08.130Z,19.6
2017-04-24T15:06:10.474Z,19.6
2017-04-24T15:08:07.964Z,19.6
2017-04-24T15:10:04.655Z,19.6
2017-04-24T15:12:05.341Z,19.6
2017-04-24T15:14:10.381Z,19.7
2017-04-24T15:16:05.124Z,19.7
2017-04-24T15:18:07.584Z,19.6
2017-04-24T15:20:05.691Z,19.6
2017-04-24T15:22:05.357Z,19.6
2017-04-24T15:24:05.100Z,19.6
2017-04-24T15:26:05.026Z,19.6
2017-04-24T15:28:04.720Z,19.6
2017-04-24T15:30:05.051Z,19.6
2017-04-24T15:32:05.133Z,19.6
2017-04-24T15:34:07.892Z,19.6
2017-04-24T15:36:04.885Z,19.6
2017-04-24T15:38:05.731Z,19.6
2017-04-24T15:40:05.482Z,19.6
2017-04-24T15:42:05.239Z,19.6
2017-04-24T15:44:05.091Z,19.6
2017-04-24T15:46:04.763Z,19.6
2017-04-24T15:48:05.504Z,19.6
2017-04-24T15:50:07.877Z,19.6
2017-04-24T15:52:05.744Z,19.6
2017-04-24T15:54:05.474Z,19.6
2017-04-24T15:56:10.601Z,19.6
2017-04-24T15:58:05.390Z,19.6
2017-04-24T16:00:05.207Z,19.6
2017-04-24T16:02:10.152Z,19.6
2017-04-24T16:04:05.389Z,19.5
2017-04-24T16:06:05.049Z,19.6
2017-04-24T16:08:05.183Z,19.6
2017-04-24T16:10:10.036Z,19.6
2017-04-24T16:12:04.931Z,19.5
2017-04-24T16:14:07.484Z,19.6
2017-04-24T16:16:07.673Z,19.6
2017-04-24T16:18:07.635Z,19.6
2017-04-24T16:20:05.535Z,19.6
2017-04-24T16:22:07.789Z,19.6
2017-04-24T16:24:05.707Z,19.6
2017-04-24T16:26:07.580Z,19.5
2017-04-24T16:28:05.304Z,19.6
2017-04-24T16:30:05.005Z,19.6
2017-04-24T16:32:05.077Z,19.5
2017-04-24T16:34:04.752Z,19.5
2017-04-24T16:36:07.973Z,19.6
2017-04-24T16:38:09.730Z,19.5
2017-04-24T16:40:05.596Z,19.6
2017-04-24T16:42:05.405Z,19.5
2017-04-24T16:44:05.173Z,19.6
2017-04-24T16:46:04.943Z,19.6
2017-04-24T16:48:05.171Z,19.5
2017-04-24T16:50:05.421Z,19.6
2017-04-24T16:52:05.507Z,19.6
2017-04-24T16:54:07.730Z,19.5
2017-04-24T16:56:10.615Z,19.5
2017-04-24T16:58:05.287Z,19.5
2017-04-24T17:00:05.205Z,19.5
2017-04-24T17:02:04.896Z,19.5
2017-04-24T17:04:04.591Z,19.5
2017-04-24T17:06:05.697Z,19.6
2017-04-24T17:08:05.238Z,19.5
2017-04-24T17:10:08.089Z,19.6
2017-04-24T17:12:07.545Z,19.6
2017-04-24T17:14:05.196Z,19.6
2017-04-24T17:16:04.914Z,19.6
2017-04-24T17:18:07.521Z,19.6
2017-04-24T17:20:05.221Z,19.6
2017-04-24T17:22:05.440Z,19.6
2017-04-24T17:24:10.566Z,19.6
2017-04-24T17:26:12.850Z,19.6
2017-04-24T17:28:05.839Z,19.6
2017-04-24T17:30:05.024Z,19.7
2017-04-24T17:32:09.766Z,19.7
2017-04-24T17:34:04.945Z,19.7
2017-04-24T17:36:04.975Z,19.7
2017-04-24T17:38:04.748Z,19.7
2017-04-24T17:40:05.452Z,19.8
2017-04-24T17:42:05.263Z,19.7
2017-04-24T17:44:05.254Z,19.7
2017-04-24T17:46:05.098Z,19.7
2017-04-24T17:48:07.956Z,19.7
2017-04-24T17:50:04.744Z,19.7
2017-04-24T17:52:05.473Z,19.7
2017-04-24T17:54:05.473Z,19.7
2017-04-24T17:56:05.193Z,19.6
2017-04-24T17:58:04.903Z,19.6
2017-04-24T18:00:05.449Z,19.7
2017-04-24T18:02:05.101Z,19.6
2017-04-24T18:04:04.789Z,19.6
2017-04-24T18:06:08.375Z,19.6
2017-04-24T18:08:05.584Z,19.6
2017-04-24T18:10:04.876Z,19.6
2017-04-24T18:12:10.754Z,19.7
2017-04-24T18:14:04.654Z,19.7
2017-04-24T18:16:05.698Z,19.7
2017-04-24T18:18:12.488Z,19.7
2017-04-24T18:20:05.178Z,19.7
2017-04-24T18:22:04.958Z,19.7
2017-04-24T18:24:07.529Z,19.7
2017-04-24T18:26:05.240Z,19.7
2017-04-24T18:28:05.419Z,19.7
2017-04-24T18:30:04.956Z,19.7
2017-04-24T18:32:04.885Z,19.6
2017-04-24T18:34:05.067Z,19.6
2017-04-24T18:36:04.956Z,19.6
2017-04-24T18:38:04.675Z,19.5
2017-04-24T18:40:15.501Z,19.5
2017-04-24T18:42:05.341Z,19.5
2017-04-24T18:44:05.280Z,19.5
2017-04-24T18:46:05.250Z,19.5
2017-04-24T18:48:05.087Z,19.5
2017-04-24T18:50:04.797Z,19.5
2017-04-24T18:52:05.701Z,19.6
2017-04-24T18:54:05.858Z,19.6
2017-04-24T18:56:05.650Z,19.6
2017-04-24T18:58:05.336Z,19.6
2017-04-24T19:00:05.687Z,19.6
2017-04-24T19:02:05.688Z,19.6
2017-04-24T19:04:05.768Z,19.6
2017-04-24T19:06:05.736Z,19.6
2017-04-24T19:08:05.443Z,19.6
2017-04-24T19:10:05.207Z,19.6
2017-04-24T19:12:05.225Z,19.6
2017-04-24T19:14:05.465Z,19.6
2017-04-24T19:16:05.163Z,19.7
2017-04-24T19:18:05.459Z,19.7
2017-04-24T19:20:07.842Z,19.7
2017-04-24T19:22:05.598Z,19.7
2017-04-24T19:24:05.900Z,19.7
2017-04-24T19:26:05.641Z,19.7
2017-04-24T19:28:07.868Z,19.7
2017-04-24T19:30:08.476Z,19.7
2017-04-24T19:32:05.214Z,19.7
2017-04-24T19:34:04.919Z,19.7
2017-04-24T19:36:05.213Z,19.7
2017-04-24T19:38:05.370Z,19.7
2017-04-24T19:40:07.878Z,19.7
2017-04-24T19:42:05.171Z,19.7
2017-04-24T19:44:05.915Z,19.7
2017-04-24T19:46:05.156Z,19.7
2017-04-24T19:48:05.166Z,19.7
2017-04-24T19:50:07.429Z,19.7
2017-04-24T19:52:07.888Z,19.7
2017-04-24T19:54:04.994Z,19.7
2017-04-24T19:56:08.769Z,19.7
2017-04-24T19:58:04.720Z,19.7
2017-04-24T20:00:08.174Z,19.7
2017-04-24T20:02:04.876Z,19.7
2017-04-24T20:04:07.809Z,19.7
2017-04-24T20:06:08.510Z,19.7
2017-04-24T20:08:06.521Z,19.7
2017-04-24T20:10:04.716Z,19.7
2017-04-24T20:12:14.657Z,19.7
2017-04-24T20:14:05.606Z,19.7
2017-04-24T20:16:05.473Z,19.7
2017-04-24T20:18:05.779Z,19.7
2017-04-24T20:20:05.451Z,19.7
2017-04-24T20:22:04.759Z,19.7
2017-04-24T20:24:08.390Z,19.7
2017-04-24T20:26:05.172Z,19.7
2017-04-24T20:28:05.375Z,19.7
2017-04-24T20:30:04.776Z,19.7
2017-04-24T20:32:05.426Z,19.7
2017-04-24T20:34:04.849Z,19.7
2017-04-24T20:36:08.231Z,19.7
2017-04-24T20:38:04.931Z,19.7
2017-04-24T20:40:05.174Z,19.7
2017-04-24T20:42:05.318Z,19.7
2017-04-24T20:44:05.159Z,19.7
2017-04-24T20:46:04.876Z,19.7
2017-04-24T20:48:10.226Z,19.7
2017-04-24T20:50:05.119Z,19.7
2017-04-24T20:52:07.829Z,19.7
2017-04-24T20:54:05.793Z,19.7
2017-04-24T20:56:08.339Z,19.7
2017-04-24T20:58:07.758Z,19.7
2017-04-24T21:00:08.314Z,19.7
2017-04-24T21:02:05.086Z,19.7
2017-04-24T21:04:04.789Z,19.7
2017-04-24T21:06:13.307Z,19.7
2017-04-24T21:08:04.994Z,19.7
2017-04-24T21:10:04.726Z,19.7
2017-04-24T21:12:05.792Z,19.7
2017-04-24T21:14:05.625Z,19.7
2017-04-24T21:16:07.852Z,19.7
2017-04-24T21:18:05.130Z,19.7
2017-04-24T21:20:07.473Z,19.7
2017-04-24T21:22:04.718Z,19.6
2017-04-24T21:24:13.195Z,19.7
2017-04-24T21:26:04.886Z,19.7
2017-04-24T21:28:05.875Z,19.7
2017-04-24T21:30:09.996Z,19.6
2017-04-24T21:32:04.629Z,19.6
2017-04-24T21:34:05.379Z,19.7
2017-04-24T21:36:05.189Z,19.6
2017-04-24T21:38:05.418Z,19.7
2017-04-24T21:40:10.225Z,19.7
2017-04-24T21:42:05.293Z,19.6
2017-04-24T21:44:05.884Z,19.6
2017-04-24T21:46:05.131Z,19.6
2017-04-24T21:48:05.076Z,19.6
2017-04-24T21:50:05.347Z,19.6
2017-04-24T21:52:05.160Z,19.6
2017-04-24T21:54:08.078Z,19.6
2017-04-24T21:56:04.718Z,19.6
2017-04-24T21:58:05.408Z,19.6
2017-04-24T22:00:07.297Z,19.6
2017-04-24T22:02:05.011Z,19.6
2017-04-24T22:04:04.731Z,19.6
2017-04-24T22:06:05.815Z,19.6
2017-04-24T22:08:05.504Z,19.6
2017-04-24T22:10:05.316Z,19.6
2017-04-24T22:12:05.158Z,19.6
2017-04-24T22:14:04.829Z,19.6
2017-04-24T22:16:05.888Z,19.6
2017-04-24T22:18:05.077Z,19.6
2017-04-24T22:20:07.992Z,19.6
2017-04-24T22:22:04.681Z,19.6
2017-04-24T22:24:05.669Z,19.6
2017-04-24T22:26:05.378Z,19.6
2017-04-24T22:28:05.191Z,19.6
2017-04-24T22:30:13.365Z,19.6
2017-04-24T22:32:10.302Z,19.6
2017-04-24T22:34:05.011Z,19.6
2017-04-24T22:36:07.532Z,19.6
2017-04-24T22:38:05.333Z,19.6
2017-04-24T22:40:05.117Z,19.6
2017-04-24T22:42:07.489Z,19.6
2017-04-24T22:44:05.142Z,19.6
2017-04-24T22:46:07.642Z,19.6
2017-04-24T22:48:05.684Z,19.6
2017-04-24T22:50:05.654Z,19.6
2017-04-24T22:52:05.585Z,19.6
2017-04-24T22:54:05.639Z,19.6
2017-04-24T22:56:05.359Z,19.6
2017-04-24T22:58:05.037Z,19.6
2017-04-24T23:00:05.033Z,19.6
2017-04-24T23:02:07.289Z,19.6
2017-04-24T23:04:05.188Z,19.6
2017-04-24T23:06:05.157Z,19.6
2017-04-24T23:08:07.347Z,19.6
2017-04-24T23:10:07.616Z,19.6
2017-04-24T23:12:05.497Z,19.6
2017-04-24T23:14:07.699Z,19.6
2017-04-24T23:16:07.977Z,19.6
2017-04-24T23:18:10.088Z,19.6
2017-04-24T23:20:05.687Z,19.6
2017-04-24T23:22:05.372Z,19.6
2017-04-24T23:24:05.180Z,19.6
2017-04-24T23:26:17.500Z,19.6
2017-04-24T23:28:04.691Z,19.6
2017-04-24T23:30:05.714Z,19.6
2017-04-24T23:32:07.458Z,19.6
2017-04-24T23:34:04.758Z,19.6
2017-04-24T23:36:05.849Z,19.6
2017-04-24T23:38:07.136Z,19.6
2017-04-24T23:40:04.919Z,19.6
2017-04-24T23:42:04.758Z,19.6
2017-04-24T23:44:10.599Z,19.5
2017-04-24T23:46:08.364Z,19.6
2017-04-24T23:48:07.903Z,19.6
2017-04-24T23:50:05.125Z,19.6
2017-04-24T23:52:07.715Z,19.6
2017-04-24T23:54:05.582Z,19.6
2017-04-24T23:56:05.384Z,19.6
2017-04-24T23:58:10.284Z,19.6
